createdAt,value
2023-04-15T00:01:06.020Z,99956.66
2023-04-15T00:03:34.711Z,99951.31
2023-04-15T00:06:02.523Z,99955.81
2023-04-15T00:08:31.206Z,99947.28
2023-04-15T00:11:05.726Z,99956.28
2023-04-15T00:13:34.319Z,99954.81
2023-04-15T00:16:02.197Z,99954.06
2023-04-15T00:18:32.963Z,99957.69
2023-04-15T00:21:00.286Z,99953.19
2023-04-15T00:23:28.107Z,99956.63
2023-04-15T00:25:55.289Z,99953.97
2023-04-15T00:28:22.474Z,99955.88
2023-04-15T00:30:50.262Z,99950.75
2023-04-15T00:33:17.785Z,99955.25
2023-04-15T00:35:45.094Z,99951.78
2023-04-15T00:38:12.312Z,99952.78
2023-04-15T00:40:39.809Z,99942.31
2023-04-15T00:43:07.188Z,99940.59
2023-04-15T00:45:34.272Z,99937.09
2023-04-15T00:48:01.868Z,99937.19
2023-04-15T00:50:28.932Z,99941.78
2023-04-15T00:52:56.166Z,99942.03
2023-04-15T00:55:23.714Z,99930.69
2023-04-15T00:57:51.187Z,99941.63
2023-04-15T01:00:18.336Z,99932.94
2023-04-15T01:02:46.742Z,99940.13
2023-04-15T01:05:17.304Z,99935.13
2023-04-15T01:07:44.363Z,99944.19
2023-04-15T01:10:12.124Z,99950.53
2023-04-15T01:12:39.671Z,99956.09
2023-04-15T01:15:09.586Z,99943.78
2023-04-15T01:17:37.427Z,99936.13
2023-04-15T01:20:10.657Z,99948.81
2023-04-15T01:22:38.518Z,99943.59
2023-04-15T01:25:15.329Z,99942.75
2023-04-15T01:27:45.410Z,99949.50
2023-04-15T01:30:12.795Z,99944.16
2023-04-15T01:32:40.077Z,99944.38
2023-04-15T01:35:27.136Z,99943.00
2023-04-15T01:37:55.236Z,99943.34
2023-04-15T01:40:22.901Z,99946.09
2023-04-15T01:42:49.854Z,99958.81
2023-04-15T01:45:17.579Z,99952.84
2023-04-15T01:47:45.538Z,99951.97
2023-04-15T01:50:13.162Z,99950.25
2023-04-15T01:52:40.340Z,99960.00
2023-04-15T01:55:09.111Z,99957.53
2023-04-15T01:57:37.637Z,99953.47
2023-04-15T02:00:07.681Z,99950.16
2023-04-15T02:02:40.657Z,99951.34
2023-04-15T02:05:08.721Z,99945.47
2023-04-15T02:07:37.974Z,99948.56
2023-04-15T02:10:06.421Z,99955.06
2023-04-15T02:12:36.936Z,99955.41
2023-04-15T02:15:04.559Z,99948.47
2023-04-15T02:17:35.822Z,99954.84
2023-04-15T02:20:08.771Z,99957.63
2023-04-15T02:22:35.968Z,99968.41
2023-04-15T02:25:03.242Z,99961.25
2023-04-15T02:27:32.823Z,99959.44
2023-04-15T02:29:59.845Z,99960.31
2023-04-15T02:32:26.857Z,99959.75
2023-04-15T02:34:55.454Z,99962.50
2023-04-15T02:37:23.210Z,99953.78
2023-04-15T02:39:50.715Z,99963.59
2023-04-15T02:42:18.778Z,99963.69
2023-04-15T02:44:45.758Z,99960.06
2023-04-15T02:47:12.791Z,99958.34
2023-04-15T02:49:40.372Z,99962.75
2023-04-15T02:52:07.913Z,99961.97
2023-04-15T02:54:35.018Z,99959.66
2023-04-15T02:57:02.354Z,99965.28
2023-04-15T02:59:29.703Z,99963.00
2023-04-15T03:02:00.984Z,99962.38
2023-04-15T03:04:30.178Z,99959.22
2023-04-15T03:06:57.371Z,99955.06
2023-04-15T03:09:25.226Z,99958.78
2023-04-15T03:11:54.725Z,99963.25
2023-04-15T03:14:22.507Z,99958.03
2023-04-15T03:16:50.733Z,99964.22
2023-04-15T03:19:18.958Z,99969.66
2023-04-15T03:21:46.130Z,99970.63
2023-04-15T03:24:14.130Z,99966.34
2023-04-15T03:26:41.288Z,99970.25
2023-04-15T03:29:14.744Z,99974.09
2023-04-15T03:31:42.148Z,99979.72
2023-04-15T03:34:09.182Z,99981.81
2023-04-15T03:36:36.996Z,99989.16
2023-04-15T03:39:04.416Z,99987.66
2023-04-15T03:41:32.924Z,99982.53
2023-04-15T03:44:00.210Z,99973.97
2023-04-15T03:46:27.182Z,99973.44
2023-04-15T03:48:54.684Z,99977.03
2023-04-15T03:51:21.686Z,99983.31
2023-04-15T03:53:48.666Z,99992.16
2023-04-15T03:56:15.966Z,99991.50
2023-04-15T03:58:42.953Z,99992.47
2023-04-15T04:01:10.043Z,99991.63
2023-04-15T04:03:37.973Z,99989.88
2023-04-15T04:06:05.059Z,99987.53
2023-04-15T04:08:32.016Z,99990.38
2023-04-15T04:11:01.127Z,99991.53
2023-04-15T04:13:29.187Z,100005.78
2023-04-15T04:15:56.280Z,99996.09
2023-04-15T04:18:23.483Z,100003.22
2023-04-15T04:20:50.576Z,100003.13
2023-04-15T04:23:17.570Z,100012.72
2023-04-15T04:25:44.575Z,100017.00
2023-04-15T04:28:11.715Z,100013.50
2023-04-15T04:30:40.509Z,100024.03
2023-04-15T04:33:08.020Z,100021.50
2023-04-15T04:35:37.901Z,100024.03
2023-04-15T04:38:05.022Z,100029.38
2023-04-15T04:40:34.215Z,100033.72
2023-04-15T04:43:01.289Z,100036.41
2023-04-15T04:45:28.377Z,100033.66
2023-04-15T04:47:56.278Z,100039.06
2023-04-15T04:50:23.609Z,100039.81
2023-04-15T04:52:50.752Z,100041.72
2023-04-15T04:55:17.974Z,100040.03
2023-04-15T04:57:45.574Z,100046.31
2023-04-15T05:00:14.146Z,100047.03
2023-04-15T05:02:44.139Z,100040.03
2023-04-15T05:05:12.201Z,100047.94
2023-04-15T05:07:42.577Z,100054.09
2023-04-15T05:10:10.176Z,100047.75
2023-04-15T05:12:38.580Z,100059.31
2023-04-15T05:15:07.263Z,100055.03
2023-04-15T05:17:35.520Z,100052.19
2023-04-15T05:20:04.076Z,100050.47
2023-04-15T05:22:31.507Z,100056.97
2023-04-15T05:24:58.666Z,100052.38
2023-04-15T05:27:26.037Z,100061.59
2023-04-15T05:29:53.067Z,100066.47
2023-04-15T05:32:20.153Z,100070.84
2023-04-15T05:34:47.284Z,100073.13
2023-04-15T05:37:14.375Z,100071.97
2023-04-15T05:39:42.311Z,100077.31
2023-04-15T05:42:09.624Z,100076.34
2023-04-15T05:44:37.243Z,100081.09
2023-04-15T05:47:04.322Z,100078.72
2023-04-15T05:49:31.389Z,100088.44
2023-04-15T05:51:58.391Z,100098.91
2023-04-15T05:54:27.926Z,100093.47
2023-04-15T05:56:56.519Z,100099.94
2023-04-15T05:59:23.607Z,100100.78
2023-04-15T06:01:52.371Z,100114.78
2023-04-15T06:04:19.835Z,100118.56
2023-04-15T06:06:47.285Z,100119.34
2023-04-15T06:09:14.372Z,100117.81
2023-04-15T06:11:42.809Z,100112.47
2023-04-15T06:14:10.657Z,100104.09
2023-04-15T06:16:37.929Z,100108.06
2023-04-15T06:19:05.086Z,100116.84
2023-04-15T06:21:32.198Z,100122.75
2023-04-15T06:24:01.632Z,100113.25
2023-04-15T06:26:28.778Z,100102.44
2023-04-15T06:28:55.843Z,100118.63
2023-04-15T06:31:23.328Z,100117.59
2023-04-15T06:33:50.744Z,100117.03
2023-04-15T06:36:18.644Z,100125.97
2023-04-15T06:38:45.738Z,100126.69
2023-04-15T06:41:13.012Z,100124.50
2023-04-15T06:43:40.395Z,100124.94
2023-04-15T06:46:07.406Z,100118.31
2023-04-15T06:48:34.483Z,100129.31
2023-04-15T06:51:01.939Z,100128.72
2023-04-15T06:53:35.646Z,100128.38
2023-04-15T06:56:02.811Z,100124.22
2023-04-15T06:58:29.975Z,100132.09
2023-04-15T07:00:57.105Z,100129.16
2023-04-15T07:03:24.136Z,100132.63
2023-04-15T07:05:51.152Z,100126.66
2023-04-15T07:08:18.996Z,100137.88
2023-04-15T07:10:47.283Z,100140.69
2023-04-15T07:13:14.496Z,100141.56
2023-04-15T07:15:41.529Z,100142.75
2023-04-15T07:18:09.662Z,100128.00
2023-04-15T07:20:36.794Z,100125.03
2023-04-15T07:23:03.773Z,100123.75
2023-04-15T07:25:31.039Z,100121.94
2023-04-15T07:27:58.330Z,100116.88
2023-04-15T07:30:25.462Z,100120.09
2023-04-15T07:32:52.911Z,100125.03
2023-04-15T07:35:21.874Z,100112.09
2023-04-15T07:37:49.381Z,100116.56
2023-04-15T07:40:17.192Z,100116.91
2023-04-15T07:42:44.956Z,100112.16
2023-04-15T07:45:13.039Z,100123.41
2023-04-15T07:47:40.968Z,100113.84
2023-04-15T07:50:10.714Z,100112.16
2023-04-15T07:52:40.576Z,100106.31
2023-04-15T07:55:09.000Z,100116.00
2023-04-15T07:57:36.897Z,100112.88
2023-04-15T08:00:05.982Z,100107.31
2023-04-15T08:02:40.758Z,100099.69
2023-04-15T08:05:09.358Z,100100.72
2023-04-15T08:07:39.901Z,100104.19
2023-04-15T08:10:07.898Z,100108.97
2023-04-15T08:12:35.663Z,100104.00
2023-04-15T08:15:03.195Z,100103.31
2023-04-15T08:17:30.273Z,100108.00
2023-04-15T08:19:57.617Z,100109.97
2023-04-15T08:22:25.079Z,100108.53
2023-04-15T08:24:52.229Z,100107.22
2023-04-15T08:27:19.537Z,100098.59
2023-04-15T08:29:47.284Z,100106.28
2023-04-15T08:32:15.092Z,100106.81
2023-04-15T08:34:42.518Z,100105.25
2023-04-15T08:37:10.850Z,100107.31
2023-04-15T08:39:38.790Z,100105.00
2023-04-15T08:42:12.710Z,100105.38
2023-04-15T08:44:40.539Z,100115.16
2023-04-15T08:47:09.074Z,100107.47
2023-04-15T08:49:41.429Z,100111.63
2023-04-15T08:52:09.393Z,100096.25
2023-04-15T08:54:37.892Z,100084.69
2023-04-15T08:57:05.550Z,100085.41
2023-04-15T08:59:32.912Z,100098.19
2023-04-15T09:01:59.956Z,100092.59
2023-04-15T09:04:28.526Z,100088.72
2023-04-15T09:06:55.632Z,100092.63
2023-04-15T09:09:22.745Z,100087.09
2023-04-15T09:11:51.486Z,100097.34
2023-04-15T09:14:18.528Z,100092.38
2023-04-15T09:17:05.485Z,100086.72
2023-04-15T09:19:34.601Z,100082.81
2023-04-15T09:22:02.863Z,100088.31
2023-04-15T09:24:39.568Z,100082.31
2023-04-15T09:27:08.374Z,100084.34
2023-04-15T09:29:37.144Z,100082.75
2023-04-15T09:32:16.175Z,100075.78
2023-04-15T09:34:44.796Z,100077.38
2023-04-15T09:37:28.588Z,100078.13
2023-04-15T09:39:58.464Z,100079.97
2023-04-15T09:42:26.920Z,100073.75
2023-04-15T09:44:54.325Z,100077.25
2023-04-15T09:47:29.410Z,100074.13
2023-04-15T09:49:58.720Z,100068.56
2023-04-15T09:52:26.165Z,100062.75
2023-04-15T09:54:58.720Z,100061.56
2023-04-15T09:57:25.902Z,100062.16
2023-04-15T09:59:52.964Z,100066.22
2023-04-15T10:02:23.725Z,100060.44
2023-04-15T10:04:52.553Z,100064.03
2023-04-15T10:07:22.619Z,100064.56
2023-04-15T10:09:50.127Z,100054.00
2023-04-15T10:12:19.404Z,100046.34
2023-04-15T10:14:54.278Z,100048.41
2023-04-15T10:17:23.635Z,100046.63
2023-04-15T10:19:55.125Z,100046.50
2023-04-15T10:22:27.337Z,100045.19
2023-04-15T10:24:56.560Z,100044.75
2023-04-15T10:27:24.587Z,100033.81
2023-04-15T10:29:51.913Z,100038.81
2023-04-15T10:32:24.531Z,100036.59
2023-04-15T10:34:54.431Z,100039.16
2023-04-15T10:37:33.706Z,100031.50
2023-04-15T10:40:01.017Z,100032.09
2023-04-15T10:42:35.469Z,100025.47
2023-04-15T10:45:02.637Z,100022.22
2023-04-15T10:47:29.759Z,100024.75
2023-04-15T10:50:02.542Z,100028.03
2023-04-15T10:52:30.154Z,100025.78
2023-04-15T10:55:24.326Z,100012.59
2023-04-15T10:57:59.131Z,100026.31
2023-04-15T11:00:28.910Z,100020.41
2023-04-15T11:03:06.543Z,100021.09
2023-04-15T11:05:43.188Z,100013.44
2023-04-15T11:08:11.410Z,100022.38
2023-04-15T11:10:38.420Z,100009.06
2023-04-15T11:13:17.330Z,100014.88
2023-04-15T11:15:48.864Z,100005.66
2023-04-15T11:18:23.658Z,100001.66
2023-04-15T11:21:07.627Z,99992.53
2023-04-15T11:23:48.845Z,99998.84
2023-04-15T11:26:16.364Z,99997.00
2023-04-15T11:28:45.799Z,99998.97
2023-04-15T11:31:16.513Z,99989.56
2023-04-15T11:33:59.514Z,99986.50
2023-04-15T11:36:29.399Z,99985.03
2023-04-15T11:38:59.910Z,99987.50
2023-04-15T11:41:27.117Z,99978.13
2023-04-15T11:43:54.150Z,99976.59
2023-04-15T11:46:22.999Z,99975.72
2023-04-15T11:48:50.266Z,99982.16
2023-04-15T11:51:17.364Z,99977.97
2023-04-15T11:53:47.667Z,99984.75
2023-04-15T11:56:22.436Z,99980.16
2023-04-15T11:58:54.368Z,99974.59
2023-04-15T12:01:21.679Z,99983.38
2023-04-15T12:03:50.352Z,99980.50
2023-04-15T12:06:23.613Z,99986.19
2023-04-15T12:09:04.832Z,99988.59
2023-04-15T12:11:44.603Z,99987.97
2023-04-15T12:14:33.557Z,99985.81
2023-04-15T12:17:06.071Z,99976.41
2023-04-15T12:19:38.551Z,99978.97
2023-04-15T12:22:14.321Z,99977.09
2023-04-15T12:24:53.110Z,99975.78
2023-04-15T12:27:21.297Z,99976.50
2023-04-15T12:29:48.467Z,99973.28
2023-04-15T12:32:17.268Z,99974.34
2023-04-15T12:34:58.278Z,99970.59
2023-04-15T12:37:26.219Z,99966.44
2023-04-15T12:39:54.119Z,99973.16
2023-04-15T12:42:22.549Z,99972.22
2023-04-15T12:44:49.952Z,99971.56
2023-04-15T12:47:17.194Z,99977.53
2023-04-15T12:49:44.229Z,99971.81
2023-04-15T12:52:11.355Z,99965.88
2023-04-15T12:54:39.365Z,99977.53
2023-04-15T12:57:07.464Z,99971.31
2023-04-15T12:59:35.772Z,99969.13
2023-04-15T13:02:03.616Z,99975.78
2023-04-15T13:04:31.581Z,99979.78
2023-04-15T13:06:58.990Z,99980.28
2023-04-15T13:09:26.082Z,99975.25
2023-04-15T13:11:54.640Z,99975.34
2023-04-15T13:14:22.067Z,99980.44
2023-04-15T13:16:49.205Z,99978.13
2023-04-15T13:19:16.410Z,99969.59
2023-04-15T13:21:47.092Z,99984.72
2023-04-15T13:24:14.018Z,99979.19
2023-04-15T13:26:41.082Z,99977.13
2023-04-15T13:29:08.192Z,99969.59
2023-04-15T13:31:35.643Z,99966.31
2023-04-15T13:36:29.813Z,99963.50
2023-04-15T13:38:57.838Z,99964.66
2023-04-15T13:41:24.987Z,99961.59
2023-04-15T13:43:52.472Z,99969.75
2023-04-15T13:46:19.944Z,99963.13
2023-04-15T13:48:47.182Z,99967.16
2023-04-15T13:51:14.108Z,99968.09
2023-04-15T13:53:41.086Z,99963.81
2023-04-15T13:56:08.888Z,99956.63
2023-04-15T13:58:37.756Z,99964.19
2023-04-15T14:01:06.986Z,99966.31
2023-04-15T14:03:36.990Z,99961.75
2023-04-15T14:06:05.907Z,99966.38
2023-04-15T14:08:33.230Z,99964.13
2023-04-15T14:11:00.808Z,99963.00
2023-04-15T14:13:28.201Z,99960.31
2023-04-15T14:15:56.954Z,99956.13
2023-04-15T14:18:23.984Z,99963.00
2023-04-15T14:20:51.154Z,99968.38
2023-04-15T14:23:19.306Z,99965.81
2023-04-15T14:25:48.389Z,99968.09
2023-04-15T14:28:15.856Z,99968.69
2023-04-15T14:30:42.946Z,99973.72
2023-04-15T14:33:10.028Z,99971.34
2023-04-15T14:35:37.103Z,99980.44
2023-04-15T14:38:05.967Z,99986.34
2023-04-15T14:40:33.843Z,99979.19
2023-04-15T14:43:00.946Z,99984.75
2023-04-15T14:45:28.110Z,99980.94
2023-04-15T14:47:55.298Z,99994.38
2023-04-15T14:50:22.517Z,99985.94
2023-04-15T14:52:49.504Z,99988.16
2023-04-15T14:55:17.102Z,99993.63
2023-04-15T14:57:44.079Z,99993.66
2023-04-15T15:00:14.477Z,99988.31
2023-04-15T15:02:43.450Z,100000.41
2023-04-15T15:05:12.013Z,99995.22
2023-04-15T15:07:43.603Z,99991.97
2023-04-15T15:10:10.948Z,99994.50
2023-04-15T15:12:38.046Z,99989.69
2023-04-15T15:15:15.676Z,99992.94
2023-04-15T15:17:47.254Z,100003.50
2023-04-15T15:20:14.337Z,99999.16
2023-04-15T15:22:41.299Z,99998.47
2023-04-15T15:25:08.526Z,100003.34
2023-04-15T15:27:38.161Z,100008.53
2023-04-15T15:30:06.958Z,100003.78
2023-04-15T15:32:34.365Z,100007.34
2023-04-15T15:35:01.650Z,100010.25
2023-04-15T15:37:31.497Z,100013.63
2023-04-15T15:39:58.978Z,100016.63
2023-04-15T15:42:26.154Z,100010.59
2023-04-15T15:44:53.299Z,100016.31
2023-04-15T15:47:22.186Z,100029.94
2023-04-15T15:49:49.483Z,100031.06
2023-04-15T15:52:16.472Z,100029.44
2023-04-15T15:54:43.740Z,100034.00
2023-04-15T15:57:11.306Z,100031.81
2023-04-15T15:59:44.019Z,100039.13
2023-04-15T16:02:12.769Z,100042.75
2023-04-15T16:04:40.761Z,100041.59
2023-04-15T16:07:07.921Z,100050.97
2023-04-15T16:09:35.432Z,100049.78
2023-04-15T16:12:04.208Z,100052.47
2023-04-15T16:14:32.030Z,100055.72
2023-04-15T16:16:59.298Z,100058.13
2023-04-15T16:19:26.401Z,100062.38
2023-04-15T16:21:54.183Z,100065.06
2023-04-15T16:24:21.326Z,100067.78
2023-04-15T16:26:48.357Z,100073.84
2023-04-15T16:29:15.663Z,100067.25
2023-04-15T16:31:42.733Z,100082.50
2023-04-15T16:34:10.275Z,100075.66
2023-04-15T16:36:40.397Z,100072.78
2023-04-15T16:39:07.908Z,100081.72
2023-04-15T16:41:35.404Z,100077.03
2023-04-15T16:44:03.400Z,100083.28
2023-04-15T16:46:31.134Z,100083.81
2023-04-15T16:48:58.426Z,100084.66
2023-04-15T16:51:26.016Z,100089.22
2023-04-15T16:53:53.566Z,100089.53
2023-04-15T16:56:22.142Z,100082.75
2023-04-15T16:58:49.630Z,100089.47
2023-04-15T17:01:16.991Z,100086.75
2023-04-15T17:03:45.207Z,100088.44
2023-04-15T17:06:12.798Z,100089.47
2023-04-15T17:08:40.490Z,100093.00
2023-04-15T17:11:07.989Z,100091.31
2023-04-15T17:13:35.166Z,100103.81
2023-04-15T17:16:03.067Z,100095.84
2023-04-15T17:18:38.935Z,100102.13
2023-04-15T17:21:17.202Z,100109.69
2023-04-15T17:23:47.114Z,100116.38
2023-04-15T17:26:15.581Z,100130.06
2023-04-15T17:28:43.174Z,100130.41
2023-04-15T17:31:14.164Z,100137.56
2023-04-15T17:34:09.374Z,100155.84
2023-04-15T17:36:37.272Z,100154.34
2023-04-15T17:39:04.805Z,100159.28
2023-04-15T17:41:52.040Z,100168.38
2023-04-15T17:44:19.414Z,100183.00
2023-04-15T17:47:07.258Z,100179.91
2023-04-15T17:49:54.165Z,100198.53
2023-04-15T17:52:41.668Z,100190.78
2023-04-15T17:55:29.152Z,100187.34
2023-04-15T17:58:16.282Z,100198.59
2023-04-15T18:01:03.363Z,100212.31
2023-04-15T18:03:50.651Z,100218.41
2023-04-15T18:06:38.049Z,100235.34
2023-04-15T18:09:25.368Z,100243.22
2023-04-15T18:12:12.328Z,100261.38
2023-04-15T18:14:59.847Z,100271.03
2023-04-15T18:17:47.966Z,100285.19
2023-04-15T18:20:15.774Z,100286.06
2023-04-15T18:22:45.337Z,100280.91
2023-04-15T18:25:12.245Z,100283.44
2023-04-15T18:27:39.433Z,100277.94
2023-04-15T18:30:09.819Z,100275.09
2023-04-15T18:32:36.962Z,100265.63
2023-04-15T18:35:06.015Z,100276.25
2023-04-15T18:37:33.490Z,100280.38
2023-04-15T18:40:01.445Z,100285.78
2023-04-15T18:42:28.374Z,100296.22
2023-04-15T18:44:55.423Z,100302.09
2023-04-15T18:47:23.073Z,100304.13
2023-04-15T18:49:50.896Z,100308.44
2023-04-15T18:52:17.926Z,100319.34
2023-04-15T18:54:44.938Z,100316.78
2023-04-15T18:57:12.145Z,100322.16
2023-04-15T18:59:39.118Z,100321.06
2023-04-15T19:02:07.553Z,100326.84
2023-04-15T19:04:35.028Z,100329.91
2023-04-15T19:07:02.259Z,100340.22
2023-04-15T19:09:29.962Z,100346.56
2023-04-15T19:11:57.674Z,100350.66
2023-04-15T19:14:24.704Z,100354.22
2023-04-15T19:16:52.447Z,100360.09
2023-04-15T19:19:19.974Z,100352.47
2023-04-15T19:21:49.854Z,100358.47
2023-04-15T19:24:18.193Z,100361.88
2023-04-15T19:26:49.870Z,100373.38
2023-04-15T19:29:17.738Z,100373.03
2023-04-15T19:31:45.381Z,100379.91
2023-04-15T19:34:12.667Z,100377.94
2023-04-15T19:36:39.740Z,100382.19
2023-04-15T19:39:07.511Z,100392.81
2023-04-15T19:41:34.652Z,100402.47
2023-04-15T19:44:03.185Z,100397.00
2023-04-15T19:46:30.770Z,100397.94
2023-04-15T19:48:58.107Z,100411.41
2023-04-15T19:51:26.141Z,100409.69
2023-04-15T19:53:56.296Z,100420.72
2023-04-15T19:56:24.116Z,100425.25
2023-04-15T19:58:53.088Z,100419.88
2023-04-15T20:01:20.648Z,100429.78
2023-04-15T20:03:48.590Z,100432.47
2023-04-15T20:06:15.956Z,100424.50
2023-04-15T20:08:43.219Z,100440.41
2023-04-15T20:11:11.227Z,100444.69
2023-04-15T20:13:43.424Z,100449.94
2023-04-15T20:16:11.963Z,100447.13
2023-04-15T20:18:39.219Z,100452.50
2023-04-15T20:21:06.224Z,100440.03
2023-04-15T20:23:35.128Z,100445.41
2023-04-15T20:26:02.064Z,100448.09
2023-04-15T20:28:29.049Z,100453.00
2023-04-15T20:30:56.508Z,100456.19
2023-04-15T20:33:25.860Z,100471.63
2023-04-15T20:35:53.905Z,100463.91
2023-04-15T20:38:21.908Z,100476.75
2023-04-15T20:40:48.948Z,100478.59
2023-04-15T20:43:16.000Z,100482.88
2023-04-15T20:45:42.992Z,100484.84
2023-04-15T20:48:10.937Z,100483.75
2023-04-15T20:50:38.957Z,100492.53
2023-04-15T20:53:06.089Z,100489.22
2023-04-15T20:55:33.027Z,100488.38
2023-04-15T20:58:00.050Z,100502.94
2023-04-15T21:00:27.193Z,100497.81
2023-04-15T21:02:54.340Z,100506.22
2023-04-15T21:05:21.632Z,100514.41
2023-04-15T21:07:48.598Z,100518.06
2023-04-15T21:10:15.832Z,100517.44
2023-04-15T21:12:43.010Z,100523.56
2023-04-15T21:15:10.774Z,100529.06
2023-04-15T21:17:39.114Z,100534.06
2023-04-15T21:20:07.960Z,100539.59
2023-04-15T21:22:35.273Z,100534.44
2023-04-15T21:25:03.264Z,100545.59
2023-04-15T21:27:30.587Z,100546.69
2023-04-15T21:29:57.545Z,100551.44
2023-04-15T21:32:24.569Z,100545.31
2023-04-15T21:34:51.738Z,100559.00
2023-04-15T21:37:18.819Z,100561.59
2023-04-15T21:39:45.857Z,100565.47
2023-04-15T21:42:12.883Z,100575.13
2023-04-15T21:44:39.950Z,100572.44
2023-04-15T21:47:07.005Z,100580.75
2023-04-15T21:49:34.076Z,100576.97
2023-04-15T21:52:01.480Z,100579.53
2023-04-15T21:54:28.579Z,100582.44
2023-04-15T21:56:57.012Z,100589.19
2023-04-15T21:59:25.316Z,100592.66
2023-04-15T22:01:52.480Z,100589.59
2023-04-15T22:04:19.688Z,100590.06
2023-04-15T22:06:47.121Z,100590.94
2023-04-15T22:09:14.579Z,100597.91
2023-04-15T22:11:41.725Z,100606.84
2023-04-15T22:14:09.151Z,100608.88
2023-04-15T22:16:36.311Z,100610.00
2023-04-15T22:19:03.504Z,100608.38
2023-04-15T22:21:30.516Z,100613.13
2023-04-15T22:24:33.539Z,100612.53
2023-04-15T22:26:44.663Z,100620.81
2023-04-15T22:29:12.821Z,100616.66
2023-04-15T22:31:39.930Z,100623.09
2023-04-15T22:34:06.936Z,100622.47
2023-04-15T22:36:34.055Z,100625.38
2023-04-15T22:39:01.075Z,100633.66
2023-04-15T22:41:28.288Z,100632.06
2023-04-15T22:43:55.551Z,100633.91
2023-04-15T22:46:22.609Z,100639.38
2023-04-15T22:48:49.670Z,100638.41
2023-04-15T22:51:22.710Z,100647.56
2023-04-15T22:53:50.709Z,100639.72
2023-04-15T22:56:21.925Z,100654.22
2023-04-15T22:58:49.986Z,100650.91
2023-04-15T23:01:18.239Z,100662.59
2023-04-15T23:03:57.487Z,100659.16
2023-04-15T23:06:32.894Z,100653.28
2023-04-15T23:09:00.020Z,100660.69
2023-04-15T23:11:27.460Z,100656.72
2023-04-15T23:13:54.466Z,100662.44
2023-04-15T23:16:22.156Z,100669.09
2023-04-15T23:18:49.208Z,100663.09
2023-04-15T23:21:17.026Z,100662.47
2023-04-15T23:23:44.269Z,100664.31
2023-04-15T23:26:11.574Z,100667.31
2023-04-15T23:28:38.639Z,100670.19
2023-04-15T23:31:06.924Z,100673.31
2023-04-15T23:33:34.447Z,100670.97
2023-04-15T23:36:01.699Z,100666.81
2023-04-15T23:38:28.648Z,100676.03
2023-04-15T23:40:55.572Z,100675.28
2023-04-15T23:43:22.574Z,100663.06
2023-04-15T23:45:49.576Z,100673.16
2023-04-15T23:48:16.948Z,100670.91
2023-04-15T23:50:44.001Z,100672.16
2023-04-15T23:53:11.101Z,100670.69
2023-04-15T23:55:38.158Z,100668.22
2023-04-15T23:58:05.083Z,100669.16
